CheckWX is a tool to help pilots better visualize weather data.  It is not intended as a substitute for an official pre-flight weather briefing.

04:18:26 UTC

CYXJ TAF
Fort St John Airport
Fort St.John, Canada
TAF AMD CYXJ 190321Z 1903/1913 14008KT P6SM -SN BKN025 OVC060 TEMPO 1903/1907 3SM -SN OVC020 FM190700 16006KT P6SM BKN025 BKN080 TEMPO 1907/1913 5SM -SN BKN020 BKN060 RMK NXT FCST BY 190700Z

Jan-19@
03:00 UTC

Jan-19 @ 03:00 UTC

Jan-19@
07:00 UTC

Jan-19 @ 07:00 UTC

TAF AMD CYXJ 190321Z 1903/1913 14008KT P6SM -SN BKN025 OVC060
Wind
  • 140° at 8 KTS
Conditions
Light Snow
Cloud Levels
  • Broken at 2,500' AGL
  • Overcast at 6,000' AGL

Jan-19@
03:00 UTC

Jan-19 @ 03:00 UTC

Jan-19@
07:00 UTC

Jan-19 @ 07:00 UTC

TEMPO 1903/1907 3SM -SN OVC020

Temporary

Temporary Changes expected for less than half the time period

Conditions
Light Snow
Cloud Levels
  • Overcast at 2,000' AGL

Jan-19@
07:00 UTC

Jan-19 @ 07:00 UTC

Jan-19@
13:00 UTC

Jan-19 @ 13:00 UTC

FM190700 16006KT P6SM BKN025 BKN080

From

From Standard forecast or significant change

Wind
  • 160° at 6 KTS
Cloud Levels
  • Broken at 2,500' AGL
  • Broken at 8,000' AGL

Jan-19@
07:00 UTC

Jan-19 @ 07:00 UTC

Jan-19@
13:00 UTC

Jan-19 @ 13:00 UTC

TEMPO 1907/1913 5SM -SN BKN020 BKN060 RMK NXT FCST BY 190700Z

Temporary

Temporary Changes expected for less than half the time period

Conditions
Light Snow
Cloud Levels
  • Broken at 2,000' AGL
  • Broken at 6,000' AGL